sensor_id;sensor_type;location;lat;lon;timestamp;P1;durP1;ratioP1;P2;durP2;ratioP2
20627;SDS011;10473;42.734;24.258;2023-04-20T00:00:18;4.07;;;2.70;;
20627;SDS011;10473;42.734;24.258;2023-04-20T00:02:46;3.73;;;3.17;;
20627;SDS011;10473;42.734;24.258;2023-04-20T00:05:15;4.63;;;3.00;;
20627;SDS011;10473;42.734;24.258;2023-04-20T00:07:42;4.13;;;2.80;;
20627;SDS011;10473;42.734;24.258;2023-04-20T00:10:10;4.43;;;2.70;;
20627;SDS011;10473;42.734;24.258;2023-04-20T00:12:39;3.47;;;2.50;;
20627;SDS011;10473;42.734;24.258;2023-04-20T00:15:08;13.77;;;7.27;;
20627;SDS011;10473;42.734;24.258;2023-04-20T00:17:36;12.03;;;5.93;;
20627;SDS011;10473;42.734;24.258;2023-04-20T00:20:05;5.03;;;3.90;;
20627;SDS011;10473;42.734;24.258;2023-04-20T00:22:34;3.93;;;3.23;;
20627;SDS011;10473;42.734;24.258;2023-04-20T00:25:02;7.00;;;3.77;;
20627;SDS011;10473;42.734;24.258;2023-04-20T00:27:30;4.13;;;3.37;;
20627;SDS011;10473;42.734;24.258;2023-04-20T00:29:59;5.10;;;3.50;;
20627;SDS011;10473;42.734;24.258;2023-04-20T00:32:27;5.20;;;3.63;;
20627;SDS011;10473;42.734;24.258;2023-04-20T00:34:55;6.67;;;4.53;;
20627;SDS011;10473;42.734;24.258;2023-04-20T00:37:22;8.07;;;4.73;;
20627;SDS011;10473;42.734;24.258;2023-04-20T00:39:54;5.93;;;4.33;;
20627;SDS011;10473;42.734;24.258;2023-04-20T00:42:23;5.00;;;3.70;;
20627;SDS011;10473;42.734;24.258;2023-04-20T00:44:51;6.70;;;4.23;;
20627;SDS011;10473;42.734;24.258;2023-04-20T00:47:22;5.77;;;3.67;;
20627;SDS011;10473;42.734;24.258;2023-04-20T00:49:50;8.27;;;4.43;;
20627;SDS011;10473;42.734;24.258;2023-04-20T00:52:18;5.47;;;4.43;;
20627;SDS011;10473;42.734;24.258;2023-04-20T00:54:46;7.47;;;5.30;;
20627;SDS011;10473;42.734;24.258;2023-04-20T00:57:15;4.90;;;3.70;;
20627;SDS011;10473;42.734;24.258;2023-04-20T00:59:47;3.10;;;2.77;;
20627;SDS011;10473;42.734;24.258;2023-04-20T01:02:15;4.40;;;3.40;;
20627;SDS011;10473;42.734;24.258;2023-04-20T01:04:45;6.93;;;3.67;;
20627;SDS011;10473;42.734;24.258;2023-04-20T01:07:13;4.27;;;3.53;;
20627;SDS011;10473;42.734;24.258;2023-04-20T01:09:41;5.37;;;3.53;;
20627;SDS011;10473;42.734;24.258;2023-04-20T01:12:09;3.93;;;3.53;;
20627;SDS011;10473;42.734;24.258;2023-04-20T01:14:37;5.47;;;3.90;;
20627;SDS011;10473;42.734;24.258;2023-04-20T01:17:05;4.57;;;3.80;;
20627;SDS011;10473;42.734;24.258;2023-04-20T01:19:32;3.80;;;3.50;;
20627;SDS011;10473;42.734;24.258;2023-04-20T01:22:02;4.83;;;4.23;;
20627;SDS011;10473;42.734;24.258;2023-04-20T01:24:32;5.77;;;4.87;;
20627;SDS011;10473;42.734;24.258;2023-04-20T01:27:00;4.20;;;3.80;;
20627;SDS011;10473;42.734;24.258;2023-04-20T01:29:27;5.47;;;4.40;;
20627;SDS011;10473;42.734;24.258;2023-04-20T01:31:55;4.67;;;3.70;;
20627;SDS011;10473;42.734;24.258;2023-04-20T01:34:24;3.87;;;3.03;;
20627;SDS011;10473;42.734;24.258;2023-04-20T01:36:52;4.67;;;3.93;;
20627;SDS011;10473;42.734;24.258;2023-04-20T01:39:20;5.83;;;3.47;;
20627;SDS011;10473;42.734;24.258;2023-04-20T01:41:50;4.37;;;3.57;;
20627;SDS011;10473;42.734;24.258;2023-04-20T01:44:18;5.00;;;3.97;;
20627;SDS011;10473;42.734;24.258;2023-04-20T01:46:46;5.17;;;4.13;;
20627;SDS011;10473;42.734;24.258;2023-04-20T01:49:14;9.83;;;5.30;;
20627;SDS011;10473;42.734;24.258;2023-04-20T01:51:41;8.73;;;5.73;;
20627;SDS011;10473;42.734;24.258;2023-04-20T01:54:09;10.43;;;5.70;;
20627;SDS011;10473;42.734;24.258;2023-04-20T01:56:37;6.70;;;4.50;;
20627;SDS011;10473;42.734;24.258;2023-04-20T01:59:05;5.83;;;4.90;;
20627;SDS011;10473;42.734;24.258;2023-04-20T02:01:33;6.67;;;4.67;;
20627;SDS011;10473;42.734;24.258;2023-04-20T02:04:01;6.17;;;4.53;;
20627;SDS011;10473;42.734;24.258;2023-04-20T02:06:29;6.37;;;4.37;;
20627;SDS011;10473;42.734;24.258;2023-04-20T02:08:56;6.60;;;4.37;;
20627;SDS011;10473;42.734;24.258;2023-04-20T02:11:24;6.77;;;4.63;;
20627;SDS011;10473;42.734;24.258;2023-04-20T02:13:52;6.60;;;4.77;;
20627;SDS011;10473;42.734;24.258;2023-04-20T02:16:21;6.33;;;4.10;;
20627;SDS011;10473;42.734;24.258;2023-04-20T02:18:49;4.93;;;3.63;;
20627;SDS011;10473;42.734;24.258;2023-04-20T02:21:17;5.73;;;4.70;;
20627;SDS011;10473;42.734;24.258;2023-04-20T02:23:45;6.57;;;4.33;;
20627;SDS011;10473;42.734;24.258;2023-04-20T02:26:12;7.47;;;4.27;;
20627;SDS011;10473;42.734;24.258;2023-04-20T02:28:41;5.40;;;4.70;;
20627;SDS011;10473;42.734;24.258;2023-04-20T02:31:09;6.87;;;5.63;;
20627;SDS011;10473;42.734;24.258;2023-04-20T02:33:38;6.07;;;4.83;;
20627;SDS011;10473;42.734;24.258;2023-04-20T02:36:07;5.10;;;4.17;;
20627;SDS011;10473;42.734;24.258;2023-04-20T02:38:35;5.93;;;4.73;;
20627;SDS011;10473;42.734;24.258;2023-04-20T02:41:03;6.83;;;4.33;;
20627;SDS011;10473;42.734;24.258;2023-04-20T02:43:31;8.03;;;5.43;;
20627;SDS011;10473;42.734;24.258;2023-04-20T02:46:03;6.80;;;5.27;;
20627;SDS011;10473;42.734;24.258;2023-04-20T02:48:32;5.70;;;4.93;;
20627;SDS011;10473;42.734;24.258;2023-04-20T02:51:01;6.13;;;5.20;;
20627;SDS011;10473;42.734;24.258;2023-04-20T02:53:37;8.80;;;4.57;;
20627;SDS011;10473;42.734;24.258;2023-04-20T02:56:28;8.77;;;6.27;;
20627;SDS011;10473;42.734;24.258;2023-04-20T02:59:01;8.10;;;5.47;;
20627;SDS011;10473;42.734;24.258;2023-04-20T03:01:40;6.83;;;5.07;;
20627;SDS011;10473;42.734;24.258;2023-04-20T03:04:28;9.53;;;5.03;;
20627;SDS011;10473;42.734;24.258;2023-04-20T03:07:19;6.47;;;4.60;;
20627;SDS011;10473;42.734;24.258;2023-04-20T03:09:48;5.23;;;4.57;;
20627;SDS011;10473;42.734;24.258;2023-04-20T03:12:15;8.37;;;5.33;;
20627;SDS011;10473;42.734;24.258;2023-04-20T03:14:52;8.77;;;5.07;;
20627;SDS011;10473;42.734;24.258;2023-04-20T03:17:25;6.67;;;4.87;;
20627;SDS011;10473;42.734;24.258;2023-04-20T03:19:53;7.67;;;5.53;;
20627;SDS011;10473;42.734;24.258;2023-04-20T03:22:22;5.47;;;4.67;;
20627;SDS011;10473;42.734;24.258;2023-04-20T03:24:54;6.97;;;4.93;;
20627;SDS011;10473;42.734;24.258;2023-04-20T03:27:40;5.57;;;4.27;;
20627;SDS011;10473;42.734;24.258;2023-04-20T03:30:12;4.80;;;4.13;;
20627;SDS011;10473;42.734;24.258;2023-04-20T03:32:40;6.00;;;4.33;;
20627;SDS011;10473;42.734;24.258;2023-04-20T03:35:08;6.53;;;5.60;;
20627;SDS011;10473;42.734;24.258;2023-04-20T03:37:37;5.47;;;4.87;;
20627;SDS011;10473;42.734;24.258;2023-04-20T03:40:06;13.30;;;7.70;;
20627;SDS011;10473;42.734;24.258;2023-04-20T03:42:35;8.00;;;5.87;;
20627;SDS011;10473;42.734;24.258;2023-04-20T03:45:04;5.00;;;4.50;;
20627;SDS011;10473;42.734;24.258;2023-04-20T03:47:32;9.73;;;6.67;;
20627;SDS011;10473;42.734;24.258;2023-04-20T03:50:00;9.60;;;6.87;;
20627;SDS011;10473;42.734;24.258;2023-04-20T03:52:29;9.17;;;4.93;;
20627;SDS011;10473;42.734;24.258;2023-04-20T03:55:00;5.40;;;4.63;;
20627;SDS011;10473;42.734;24.258;2023-04-20T03:57:28;8.43;;;5.57;;
20627;SDS011;10473;42.734;24.258;2023-04-20T03:59:56;5.00;;;3.93;;
20627;SDS011;10473;42.734;24.258;2023-04-20T04:02:27;6.43;;;5.37;;
20627;SDS011;10473;42.734;24.258;2023-04-20T04:04:54;5.60;;;4.80;;
20627;SDS011;10473;42.734;24.258;2023-04-20T04:07:22;5.87;;;4.80;;
20627;SDS011;10473;42.734;24.258;2023-04-20T04:09:50;4.87;;;4.37;;
20627;SDS011;10473;42.734;24.258;2023-04-20T04:12:19;8.17;;;5.63;;
20627;SDS011;10473;42.734;24.258;2023-04-20T04:14:48;7.53;;;5.47;;
20627;SDS011;10473;42.734;24.258;2023-04-20T04:17:18;5.97;;;4.57;;
20627;SDS011;10473;42.734;24.258;2023-04-20T04:19:46;5.47;;;4.07;;
20627;SDS011;10473;42.734;24.258;2023-04-20T04:22:14;6.03;;;3.97;;
20627;SDS011;10473;42.734;24.258;2023-04-20T04:24:56;8.23;;;5.30;;
20627;SDS011;10473;42.734;24.258;2023-04-20T04:27:25;15.73;;;8.20;;
20627;SDS011;10473;42.734;24.258;2023-04-20T04:29:55;6.80;;;4.80;;
20627;SDS011;10473;42.734;24.258;2023-04-20T04:32:23;10.93;;;5.50;;
20627;SDS011;10473;42.734;24.258;2023-04-20T04:34:51;5.83;;;4.63;;
20627;SDS011;10473;42.734;24.258;2023-04-20T04:37:19;8.97;;;5.33;;
20627;SDS011;10473;42.734;24.258;2023-04-20T04:39:52;5.53;;;4.53;;
20627;SDS011;10473;42.734;24.258;2023-04-20T04:42:26;14.07;;;8.00;;
20627;SDS011;10473;42.734;24.258;2023-04-20T04:44:56;6.13;;;4.30;;
20627;SDS011;10473;42.734;24.258;2023-04-20T04:47:32;6.03;;;4.70;;
20627;SDS011;10473;42.734;24.258;2023-04-20T04:50:01;7.13;;;5.43;;
20627;SDS011;10473;42.734;24.258;2023-04-20T04:52:31;9.00;;;6.47;;
20627;SDS011;10473;42.734;24.258;2023-04-20T04:54:59;6.07;;;5.13;;
20627;SDS011;10473;42.734;24.258;2023-04-20T04:57:28;8.03;;;5.33;;
20627;SDS011;10473;42.734;24.258;2023-04-20T04:59:55;8.17;;;5.47;;
20627;SDS011;10473;42.734;24.258;2023-04-20T05:02:24;6.47;;;5.07;;
20627;SDS011;10473;42.734;24.258;2023-04-20T05:04:52;14.73;;;6.40;;
20627;SDS011;10473;42.734;24.258;2023-04-20T05:07:20;4.83;;;3.80;;
20627;SDS011;10473;42.734;24.258;2023-04-20T05:09:47;8.27;;;5.87;;
20627;SDS011;10473;42.734;24.258;2023-04-20T05:12:15;9.73;;;7.53;;
20627;SDS011;10473;42.734;24.258;2023-04-20T05:14:44;8.47;;;6.10;;
20627;SDS011;10473;42.734;24.258;2023-04-20T05:17:12;7.23;;;5.67;;
20627;SDS011;10473;42.734;24.258;2023-04-20T05:19:40;12.43;;;6.53;;
20627;SDS011;10473;42.734;24.258;2023-04-20T05:22:07;8.70;;;6.17;;
20627;SDS011;10473;42.734;24.258;2023-04-20T05:24:35;11.77;;;5.63;;
20627;SDS011;10473;42.734;24.258;2023-04-20T05:27:03;17.03;;;8.67;;
20627;SDS011;10473;42.734;24.258;2023-04-20T05:29:30;7.47;;;5.50;;
20627;SDS011;10473;42.734;24.258;2023-04-20T05:31:59;7.63;;;5.40;;
20627;SDS011;10473;42.734;24.258;2023-04-20T05:34:27;8.70;;;5.93;;
20627;SDS011;10473;42.734;24.258;2023-04-20T05:36:56;8.20;;;5.70;;
20627;SDS011;10473;42.734;24.258;2023-04-20T05:39:24;9.57;;;6.67;;
20627;SDS011;10473;42.734;24.258;2023-04-20T05:41:52;8.77;;;5.87;;
20627;SDS011;10473;42.734;24.258;2023-04-20T05:44:20;9.17;;;5.90;;
20627;SDS011;10473;42.734;24.258;2023-04-20T05:46:48;8.00;;;5.77;;
20627;SDS011;10473;42.734;24.258;2023-04-20T05:49:17;5.77;;;4.57;;
20627;SDS011;10473;42.734;24.258;2023-04-20T05:51:44;8.27;;;5.30;;
20627;SDS011;10473;42.734;24.258;2023-04-20T05:54:13;6.30;;;4.70;;
20627;SDS011;10473;42.734;24.258;2023-04-20T05:56:41;4.77;;;4.23;;
20627;SDS011;10473;42.734;24.258;2023-04-20T05:59:08;7.67;;;4.33;;
20627;SDS011;10473;42.734;24.258;2023-04-20T06:01:36;8.30;;;5.10;;
20627;SDS011;10473;42.734;24.258;2023-04-20T06:04:04;9.00;;;5.63;;
20627;SDS011;10473;42.734;24.258;2023-04-20T06:06:33;4.73;;;4.10;;
20627;SDS011;10473;42.734;24.258;2023-04-20T06:09:01;9.03;;;6.60;;
20627;SDS011;10473;42.734;24.258;2023-04-20T06:11:29;6.43;;;4.97;;
20627;SDS011;10473;42.734;24.258;2023-04-20T06:13:57;11.13;;;6.43;;
20627;SDS011;10473;42.734;24.258;2023-04-20T06:16:25;4.97;;;4.20;;
20627;SDS011;10473;42.734;24.258;2023-04-20T06:18:52;5.90;;;4.37;;
20627;SDS011;10473;42.734;24.258;2023-04-20T06:21:20;6.53;;;4.53;;
20627;SDS011;10473;42.734;24.258;2023-04-20T06:23:50;6.80;;;4.83;;
20627;SDS011;10473;42.734;24.258;2023-04-20T06:26:19;16.80;;;9.67;;
20627;SDS011;10473;42.734;24.258;2023-04-20T06:28:48;13.47;;;7.53;;
20627;SDS011;10473;42.734;24.258;2023-04-20T06:31:17;12.37;;;7.37;;
20627;SDS011;10473;42.734;24.258;2023-04-20T06:33:46;6.37;;;5.33;;
20627;SDS011;10473;42.734;24.258;2023-04-20T06:36:13;8.27;;;5.73;;
20627;SDS011;10473;42.734;24.258;2023-04-20T06:38:41;11.00;;;5.40;;
20627;SDS011;10473;42.734;24.258;2023-04-20T06:41:10;10.60;;;6.17;;
20627;SDS011;10473;42.734;24.258;2023-04-20T06:43:38;9.20;;;5.70;;
20627;SDS011;10473;42.734;24.258;2023-04-20T06:46:07;9.97;;;5.67;;
20627;SDS011;10473;42.734;24.258;2023-04-20T06:48:34;8.00;;;5.60;;
20627;SDS011;10473;42.734;24.258;2023-04-20T06:51:02;6.53;;;5.00;;
20627;SDS011;10473;42.734;24.258;2023-04-20T06:53:30;8.07;;;6.10;;
20627;SDS011;10473;42.734;24.258;2023-04-20T06:55:57;7.97;;;4.20;;
20627;SDS011;10473;42.734;24.258;2023-04-20T06:58:26;7.73;;;5.13;;
20627;SDS011;10473;42.734;24.258;2023-04-20T07:00:54;8.80;;;6.10;;
20627;SDS011;10473;42.734;24.258;2023-04-20T07:03:22;6.53;;;5.23;;
20627;SDS011;10473;42.734;24.258;2023-04-20T07:05:49;8.63;;;5.60;;
20627;SDS011;10473;42.734;24.258;2023-04-20T07:08:17;5.77;;;4.40;;
20627;SDS011;10473;42.734;24.258;2023-04-20T07:10:45;7.07;;;3.93;;
20627;SDS011;10473;42.734;24.258;2023-04-20T07:13:12;5.73;;;3.77;;
20627;SDS011;10473;42.734;24.258;2023-04-20T07:15:42;4.30;;;3.43;;
20627;SDS011;10473;42.734;24.258;2023-04-20T07:18:11;3.57;;;3.27;;
20627;SDS011;10473;42.734;24.258;2023-04-20T07:20:39;6.07;;;3.50;;
20627;SDS011;10473;42.734;24.258;2023-04-20T07:23:06;5.30;;;3.63;;
20627;SDS011;10473;42.734;24.258;2023-04-20T07:25:34;4.60;;;4.00;;
20627;SDS011;10473;42.734;24.258;2023-04-20T07:28:02;4.03;;;3.60;;
20627;SDS011;10473;42.734;24.258;2023-04-20T07:30:30;5.63;;;4.23;;
20627;SDS011;10473;42.734;24.258;2023-04-20T07:32:59;4.70;;;3.83;;
20627;SDS011;10473;42.734;24.258;2023-04-20T07:35:26;5.20;;;4.43;;
20627;SDS011;10473;42.734;24.258;2023-04-20T07:37:54;5.17;;;3.70;;
20627;SDS011;10473;42.734;24.258;2023-04-20T07:40:22;3.90;;;3.17;;
20627;SDS011;10473;42.734;24.258;2023-04-20T07:42:50;4.90;;;3.63;;
20627;SDS011;10473;42.734;24.258;2023-04-20T07:45:17;4.63;;;4.13;;
20627;SDS011;10473;42.734;24.258;2023-04-20T07:47:45;4.93;;;3.77;;
20627;SDS011;10473;42.734;24.258;2023-04-20T07:50:17;4.83;;;3.80;;
20627;SDS011;10473;42.734;24.258;2023-04-20T07:52:45;7.30;;;4.63;;
20627;SDS011;10473;42.734;24.258;2023-04-20T07:55:12;5.00;;;3.67;;
20627;SDS011;10473;42.734;24.258;2023-04-20T07:57:42;4.50;;;4.10;;
20627;SDS011;10473;42.734;24.258;2023-04-20T08:00:10;7.30;;;4.47;;
20627;SDS011;10473;42.734;24.258;2023-04-20T08:02:39;6.90;;;4.63;;
20627;SDS011;10473;42.734;24.258;2023-04-20T08:05:06;6.27;;;4.20;;
20627;SDS011;10473;42.734;24.258;2023-04-20T08:07:37;5.33;;;4.33;;
20627;SDS011;10473;42.734;24.258;2023-04-20T08:10:05;7.53;;;4.80;;
20627;SDS011;10473;42.734;24.258;2023-04-20T08:12:33;4.73;;;4.03;;
20627;SDS011;10473;42.734;24.258;2023-04-20T08:15:01;7.17;;;4.40;;
20627;SDS011;10473;42.734;24.258;2023-04-20T08:17:31;4.17;;;3.20;;
20627;SDS011;10473;42.734;24.258;2023-04-20T08:19:59;6.33;;;4.23;;
20627;SDS011;10473;42.734;24.258;2023-04-20T08:22:26;5.93;;;3.53;;
20627;SDS011;10473;42.734;24.258;2023-04-20T08:24:57;5.83;;;3.73;;
20627;SDS011;10473;42.734;24.258;2023-04-20T08:27:24;3.87;;;3.00;;
20627;SDS011;10473;42.734;24.258;2023-04-20T08:29:54;5.70;;;3.70;;
20627;SDS011;10473;42.734;24.258;2023-04-20T08:32:22;8.87;;;4.70;;
20627;SDS011;10473;42.734;24.258;2023-04-20T08:34:51;6.03;;;4.43;;
20627;SDS011;10473;42.734;24.258;2023-04-20T08:37:19;10.40;;;4.33;;
20627;SDS011;10473;42.734;24.258;2023-04-20T08:39:47;4.73;;;3.23;;
20627;SDS011;10473;42.734;24.258;2023-04-20T08:42:16;4.47;;;2.93;;
20627;SDS011;10473;42.734;24.258;2023-04-20T08:44:43;5.73;;;4.20;;
20627;SDS011;10473;42.734;24.258;2023-04-20T08:47:13;4.10;;;3.03;;
20627;SDS011;10473;42.734;24.258;2023-04-20T08:49:42;3.23;;;2.83;;
20627;SDS011;10473;42.734;24.258;2023-04-20T08:52:11;4.50;;;3.13;;
20627;SDS011;10473;42.734;24.258;2023-04-20T08:54:38;4.60;;;3.20;;
20627;SDS011;10473;42.734;24.258;2023-04-20T08:57:06;4.93;;;3.30;;
20627;SDS011;10473;42.734;24.258;2023-04-20T08:59:36;4.70;;;4.03;;
20627;SDS011;10473;42.734;24.258;2023-04-20T09:02:07;3.73;;;2.83;;
20627;SDS011;10473;42.734;24.258;2023-04-20T09:04:37;4.60;;;3.57;;
20627;SDS011;10473;42.734;24.258;2023-04-20T09:07:06;4.27;;;3.17;;
20627;SDS011;10473;42.734;24.258;2023-04-20T09:09:52;4.00;;;2.90;;
20627;SDS011;10473;42.734;24.258;2023-04-20T09:12:20;3.83;;;3.03;;
20627;SDS011;10473;42.734;24.258;2023-04-20T09:14:49;4.57;;;3.37;;
20627;SDS011;10473;42.734;24.258;2023-04-20T09:17:18;3.63;;;3.10;;
20627;SDS011;10473;42.734;24.258;2023-04-20T09:19:56;3.50;;;3.07;;
20627;SDS011;10473;42.734;24.258;2023-04-20T09:22:30;5.20;;;3.00;;
20627;SDS011;10473;42.734;24.258;2023-04-20T09:24:59;3.13;;;2.83;;
20627;SDS011;10473;42.734;24.258;2023-04-20T09:27:37;2.90;;;2.50;;
20627;SDS011;10473;42.734;24.258;2023-04-20T09:30:07;2.80;;;2.60;;
20627;SDS011;10473;42.734;24.258;2023-04-20T09:32:36;3.50;;;2.73;;
20627;SDS011;10473;42.734;24.258;2023-04-20T09:35:04;7.23;;;2.73;;
20627;SDS011;10473;42.734;24.258;2023-04-20T09:37:32;3.67;;;2.63;;
20627;SDS011;10473;42.734;24.258;2023-04-20T09:40:01;4.13;;;2.43;;
20627;SDS011;10473;42.734;24.258;2023-04-20T09:42:31;2.70;;;2.13;;
20627;SDS011;10473;42.734;24.258;2023-04-20T09:45:03;2.77;;;1.97;;
20627;SDS011;10473;42.734;24.258;2023-04-20T09:47:34;2.27;;;1.90;;
20627;SDS011;10473;42.734;24.258;2023-04-20T09:50:08;3.70;;;2.77;;
20627;SDS011;10473;42.734;24.258;2023-04-20T09:52:37;3.50;;;2.33;;
20627;SDS011;10473;42.734;24.258;2023-04-20T09:55:06;3.57;;;2.23;;
20627;SDS011;10473;42.734;24.258;2023-04-20T09:57:38;2.30;;;2.07;;
20627;SDS011;10473;42.734;24.258;2023-04-20T10:00:07;3.50;;;2.70;;
20627;SDS011;10473;42.734;24.258;2023-04-20T10:02:39;16.30;;;7.53;;
20627;SDS011;10473;42.734;24.258;2023-04-20T10:05:06;4.03;;;2.80;;
20627;SDS011;10473;42.734;24.258;2023-04-20T10:07:34;4.50;;;3.10;;
20627;SDS011;10473;42.734;24.258;2023-04-20T10:10:03;4.07;;;3.03;;
20627;SDS011;10473;42.734;24.258;2023-04-20T10:12:32;8.70;;;3.80;;
20627;SDS011;10473;42.734;24.258;2023-04-20T10:15:01;3.43;;;3.13;;
20627;SDS011;10473;42.734;24.258;2023-04-20T10:17:30;3.23;;;2.70;;
20627;SDS011;10473;42.734;24.258;2023-04-20T10:20:00;2.90;;;2.27;;
20627;SDS011;10473;42.734;24.258;2023-04-20T10:22:30;5.33;;;3.30;;
20627;SDS011;10473;42.734;24.258;2023-04-20T10:24:59;4.63;;;2.60;;
20627;SDS011;10473;42.734;24.258;2023-04-20T10:27:27;3.37;;;2.97;;
20627;SDS011;10473;42.734;24.258;2023-04-20T10:30:07;3.13;;;2.57;;
20627;SDS011;10473;42.734;24.258;2023-04-20T10:32:35;2.47;;;1.60;;
20627;SDS011;10473;42.734;24.258;2023-04-20T10:35:05;2.43;;;1.67;;
20627;SDS011;10473;42.734;24.258;2023-04-20T10:37:45;1.23;;;1.00;;
20627;SDS011;10473;42.734;24.258;2023-04-20T10:40:14;2.97;;;1.23;;
20627;SDS011;10473;42.734;24.258;2023-04-20T10:42:42;2.00;;;1.57;;
20627;SDS011;10473;42.734;24.258;2023-04-20T10:45:10;1.13;;;1.07;;
20627;SDS011;10473;42.734;24.258;2023-04-20T10:47:38;2.77;;;2.27;;
20627;SDS011;10473;42.734;24.258;2023-04-20T10:50:09;1.40;;;1.30;;
20627;SDS011;10473;42.734;24.258;2023-04-20T10:52:38;2.00;;;1.33;;
20627;SDS011;10473;42.734;24.258;2023-04-20T10:55:16;1.63;;;1.40;;
20627;SDS011;10473;42.734;24.258;2023-04-20T10:57:45;1.93;;;1.63;;
20627;SDS011;10473;42.734;24.258;2023-04-20T11:00:14;11.63;;;5.77;;
20627;SDS011;10473;42.734;24.258;2023-04-20T11:02:47;18.47;;;8.40;;
20627;SDS011;10473;42.734;24.258;2023-04-20T11:05:17;4.57;;;2.50;;
20627;SDS011;10473;42.734;24.258;2023-04-20T11:07:52;5.53;;;1.97;;
20627;SDS011;10473;42.734;24.258;2023-04-20T11:10:20;3.37;;;1.60;;
20627;SDS011;10473;42.734;24.258;2023-04-20T11:12:49;5.53;;;2.90;;
20627;SDS011;10473;42.734;24.258;2023-04-20T11:15:43;1.67;;;1.23;;
20627;SDS011;10473;42.734;24.258;2023-04-20T11:18:11;1.40;;;1.30;;
20627;SDS011;10473;42.734;24.258;2023-04-20T11:20:49;1.57;;;1.47;;
20627;SDS011;10473;42.734;24.258;2023-04-20T11:23:18;1.40;;;1.20;;
20627;SDS011;10473;42.734;24.258;2023-04-20T11:25:47;1.97;;;1.33;;
20627;SDS011;10473;42.734;24.258;2023-04-20T11:28:17;1.30;;;1.20;;
20627;SDS011;10473;42.734;24.258;2023-04-20T11:30:44;1.33;;;1.00;;
20627;SDS011;10473;42.734;24.258;2023-04-20T11:33:13;0.80;;;0.80;;
20627;SDS011;10473;42.734;24.258;2023-04-20T11:35:41;1.30;;;1.10;;
20627;SDS011;10473;42.734;24.258;2023-04-20T11:38:10;1.97;;;1.77;;
20627;SDS011;10473;42.734;24.258;2023-04-20T11:40:38;1.53;;;1.30;;
20627;SDS011;10473;42.734;24.258;2023-04-20T11:43:06;1.83;;;1.30;;
20627;SDS011;10473;42.734;24.258;2023-04-20T11:45:33;13.33;;;5.53;;
20627;SDS011;10473;42.734;24.258;2023-04-20T11:48:01;2.17;;;1.60;;
20627;SDS011;10473;42.734;24.258;2023-04-20T11:50:29;16.67;;;6.03;;
20627;SDS011;10473;42.734;24.258;2023-04-20T11:52:57;10.87;;;5.70;;
20627;SDS011;10473;42.734;24.258;2023-04-20T11:55:26;1.60;;;1.47;;
20627;SDS011;10473;42.734;24.258;2023-04-20T11:57:53;2.20;;;1.50;;
20627;SDS011;10473;42.734;24.258;2023-04-20T12:00:21;3.13;;;1.40;;
20627;SDS011;10473;42.734;24.258;2023-04-20T12:02:49;2.17;;;1.53;;
20627;SDS011;10473;42.734;24.258;2023-04-20T12:05:17;3.20;;;2.50;;
20627;SDS011;10473;42.734;24.258;2023-04-20T12:07:44;1.40;;;1.10;;
20627;SDS011;10473;42.734;24.258;2023-04-20T12:10:12;1.60;;;1.50;;
20627;SDS011;10473;42.734;24.258;2023-04-20T12:12:41;2.53;;;1.63;;
20627;SDS011;10473;42.734;24.258;2023-04-20T12:15:09;1.50;;;1.27;;
20627;SDS011;10473;42.734;24.258;2023-04-20T12:17:37;1.37;;;1.27;;
20627;SDS011;10473;42.734;24.258;2023-04-20T12:20:05;1.60;;;1.23;;
20627;SDS011;10473;42.734;24.258;2023-04-20T12:22:37;1.57;;;1.07;;
20627;SDS011;10473;42.734;24.258;2023-04-20T12:25:05;1.20;;;1.00;;
20627;SDS011;10473;42.734;24.258;2023-04-20T12:27:33;1.57;;;0.93;;
20627;SDS011;10473;42.734;24.258;2023-04-20T12:30:02;1.20;;;1.10;;
20627;SDS011;10473;42.734;24.258;2023-04-20T12:32:31;1.37;;;1.27;;
20627;SDS011;10473;42.734;24.258;2023-04-20T12:34:58;0.70;;;0.70;;
20627;SDS011;10473;42.734;24.258;2023-04-20T12:37:26;1.67;;;1.57;;
20627;SDS011;10473;42.734;24.258;2023-04-20T12:39:54;1.30;;;1.20;;
20627;SDS011;10473;42.734;24.258;2023-04-20T12:42:22;2.43;;;1.70;;
20627;SDS011;10473;42.734;24.258;2023-04-20T12:44:51;1.23;;;1.13;;
20627;SDS011;10473;42.734;24.258;2023-04-20T12:47:20;1.60;;;1.50;;
20627;SDS011;10473;42.734;24.258;2023-04-20T12:49:48;3.23;;;2.80;;
20627;SDS011;10473;42.734;24.258;2023-04-20T12:52:15;3.57;;;2.77;;
20627;SDS011;10473;42.734;24.258;2023-04-20T12:54:43;2.23;;;2.03;;
20627;SDS011;10473;42.734;24.258;2023-04-20T12:57:11;1.00;;;0.90;;
20627;SDS011;10473;42.734;24.258;2023-04-20T12:59:39;5.50;;;4.00;;
20627;SDS011;10473;42.734;24.258;2023-04-20T13:02:07;2.00;;;1.90;;
20627;SDS011;10473;42.734;24.258;2023-04-20T13:04:39;3.20;;;2.63;;
20627;SDS011;10473;42.734;24.258;2023-04-20T13:07:07;10.97;;;7.60;;
20627;SDS011;10473;42.734;24.258;2023-04-20T13:09:34;3.10;;;2.30;;
20627;SDS011;10473;42.734;24.258;2023-04-20T13:12:02;2.20;;;1.27;;
20627;SDS011;10473;42.734;24.258;2023-04-20T13:14:30;1.07;;;0.97;;
20627;SDS011;10473;42.734;24.258;2023-04-20T13:16:58;2.17;;;1.90;;
20627;SDS011;10473;42.734;24.258;2023-04-20T13:19:26;3.73;;;3.43;;
20627;SDS011;10473;42.734;24.258;2023-04-20T13:21:56;1.67;;;1.30;;
20627;SDS011;10473;42.734;24.258;2023-04-20T13:24:23;1.33;;;1.23;;
20627;SDS011;10473;42.734;24.258;2023-04-20T13:26:52;1.10;;;1.00;;
20627;SDS011;10473;42.734;24.258;2023-04-20T13:29:22;1.60;;;1.30;;
20627;SDS011;10473;42.734;24.258;2023-04-20T13:31:50;1.77;;;1.00;;
20627;SDS011;10473;42.734;24.258;2023-04-20T13:34:18;1.97;;;1.20;;
20627;SDS011;10473;42.734;24.258;2023-04-20T13:36:46;2.30;;;1.73;;
20627;SDS011;10473;42.734;24.258;2023-04-20T13:39:15;0.87;;;0.80;;
20627;SDS011;10473;42.734;24.258;2023-04-20T13:41:45;1.80;;;1.10;;
20627;SDS011;10473;42.734;24.258;2023-04-20T13:44:14;1.20;;;1.10;;
20627;SDS011;10473;42.734;24.258;2023-04-20T13:46:42;0.90;;;0.80;;
20627;SDS011;10473;42.734;24.258;2023-04-20T13:49:11;1.10;;;1.00;;
20627;SDS011;10473;42.734;24.258;2023-04-20T13:51:39;2.43;;;1.10;;
20627;SDS011;10473;42.734;24.258;2023-04-20T13:54:07;1.50;;;1.17;;
20627;SDS011;10473;42.734;24.258;2023-04-20T13:56:36;0.90;;;0.90;;
20627;SDS011;10473;42.734;24.258;2023-04-20T13:59:03;1.13;;;0.90;;
20627;SDS011;10473;42.734;24.258;2023-04-20T14:01:31;1.07;;;0.97;;
20627;SDS011;10473;42.734;24.258;2023-04-20T14:03:59;2.37;;;1.60;;
20627;SDS011;10473;42.734;24.258;2023-04-20T14:06:26;1.63;;;1.30;;
20627;SDS011;10473;42.734;24.258;2023-04-20T14:08:55;3.07;;;1.67;;
20627;SDS011;10473;42.734;24.258;2023-04-20T14:11:22;2.23;;;1.60;;
20627;SDS011;10473;42.734;24.258;2023-04-20T14:13:54;2.30;;;1.20;;
20627;SDS011;10473;42.734;24.258;2023-04-20T14:16:23;2.60;;;1.30;;
20627;SDS011;10473;42.734;24.258;2023-04-20T14:18:51;0.87;;;0.83;;
20627;SDS011;10473;42.734;24.258;2023-04-20T14:21:19;1.13;;;0.93;;
20627;SDS011;10473;42.734;24.258;2023-04-20T14:23:46;1.57;;;1.00;;
20627;SDS011;10473;42.734;24.258;2023-04-20T14:26:18;1.70;;;1.00;;
20627;SDS011;10473;42.734;24.258;2023-04-20T14:28:46;0.83;;;0.70;;
20627;SDS011;10473;42.734;24.258;2023-04-20T14:31:15;1.00;;;0.90;;
20627;SDS011;10473;42.734;24.258;2023-04-20T14:33:43;0.60;;;0.60;;
20627;SDS011;10473;42.734;24.258;2023-04-20T14:36:10;1.53;;;1.10;;
20627;SDS011;10473;42.734;24.258;2023-04-20T14:38:38;2.67;;;1.53;;
20627;SDS011;10473;42.734;24.258;2023-04-20T14:41:05;1.47;;;1.30;;
20627;SDS011;10473;42.734;24.258;2023-04-20T14:43:33;0.90;;;0.87;;